Time;durP1;ratioP1;P1;durP2;ratioP2;P2;SDS_P1;SDS_P2;PMS_P1;PMS_P2;Temp;Humidity;BMP_temperature;BMP_pressure;BME280_temperature;BME280_humidity;BME280_pressure;Samples;Min_cycle;Max_cycle;Signal;HPM_P1;HPM_P2
2022/01/11 00:01:26;;;;;;;10.40;4.78;;;29.80;99.90;;;;;;4964293;28;20149;-75
2022/01/11 00:03:54;;;;;;;10.52;3.20;;;30.20;99.90;;;;;;4970813;28;20058;-75
2022/01/11 00:06:44;;;;;;;10.45;4.43;;;30.40;99.90;;;;;;4963251;28;20453;-76
2022/01/11 00:12:11;;;;;;;10.95;3.92;;;31.30;99.90;;;;;;4955216;28;20460;-75
2022/01/11 00:14:39;;;;;;;9.75;3.72;;;31.20;99.90;;;;;;4969364;28;20043;-76
2022/01/11 00:17:06;;;;;;;10.13;5.00;;;31.30;99.90;;;;;;4969556;28;20042;-75
2022/01/11 00:19:34;;;;;;;9.55;4.43;;;31.40;99.90;;;;;;4972487;28;20037;-75
2022/01/11 00:22:07;;;;;;;9.18;4.38;;;31.20;99.90;;;;;;4967328;28;20019;-76
2022/01/11 00:24:36;;;;;;;13.93;5.03;;;31.20;99.90;;;;;;4969054;28;20141;-76
2022/01/11 00:27:09;;;;;;;8.75;4.63;;;31.20;99.90;;;;;;4971469;28;20023;-76
2022/01/11 00:29:43;;;;;;;8.38;4.45;;;31.50;99.90;;;;;;4970368;28;20054;-76
2022/01/11 00:32:15;;;;;;;9.02;4.72;;;31.60;99.90;;;;;;4969920;28;20378;-76
2022/01/11 00:34:51;;;;;;;17.60;6.60;;;31.50;99.80;;;;;;4973873;28;20058;-76
2022/01/11 00:37:21;;;;;;;8.07;5.15;;;31.60;99.90;;;;;;4971208;28;20516;-77
2022/01/11 00:39:50;;;;;;;8.48;4.43;;;31.70;99.90;;;;;;4971074;28;20058;-78
2022/01/11 00:42:22;;;;;;;8.63;4.53;;;31.90;99.60;;;;;;4966786;28;20470;-77
2022/01/11 00:44:50;;;;;;;6.18;3.47;;;32.00;99.90;;;;;;4967702;28;20054;-76
2022/01/11 00:47:17;;;;;;;9.13;4.45;;;32.00;98.80;;;;;;4966260;28;20054;-75
2022/01/11 00:49:45;;;;;;;7.85;3.97;;;31.80;99.90;;;;;;4972752;28;20039;-77
2022/01/11 00:52:12;;;;;;;9.10;4.57;;;31.40;99.40;;;;;;4974575;28;20051;-76
2022/01/11 00:54:39;;;;;;;8.00;3.28;;;31.20;99.90;;;;;;4980261;28;20026;-77
2022/01/11 00:57:07;;;;;;;7.35;3.60;;;31.10;99.90;;;;;;4970418;28;20031;-76
2022/01/11 00:59:34;;;;;;;7.80;3.65;;;31.20;99.90;;;;;;4974705;28;20037;-77
2022/01/11 01:02:02;;;;;;;10.85;4.15;;;31.20;99.60;;;;;;4972182;28;20077;-76
2022/01/11 01:04:29;;;;;;;8.10;3.90;;;31.00;99.60;;;;;;4970036;28;20516;-76
2022/01/11 01:06:57;;;;;;;8.60;4.03;;;30.70;99.70;;;;;;4968625;28;20042;-75
2022/01/11 01:09:29;;;;;;;7.25;3.42;;;30.40;99.80;;;;;;4973156;28;20046;-77
2022/01/11 01:11:56;;;;;;;7.90;3.20;;;30.30;99.90;;;;;;4968368;28;20118;-76
2022/01/11 01:14:23;;;;;;;8.25;3.20;;;30.10;99.90;;;;;;4969003;28;20040;-76
2022/01/11 01:16:51;;;;;;;6.78;3.13;;;30.00;99.90;;;;;;4971449;28;20048;-78
2022/01/11 01:19:19;;;;;;;7.07;2.90;;;29.90;99.90;;;;;;4970739;28;20037;-76
2022/01/11 01:21:49;;;;;;;5.32;2.95;;;29.80;99.90;;;;;;4980168;28;20028;-76
2022/01/11 01:24:16;;;;;;;9.43;3.50;;;29.90;99.90;;;;;;4970662;28;20478;-76
2022/01/11 01:26:44;;;;;;;6.80;2.70;;;29.80;99.90;;;;;;4970818;28;20030;-77
2022/01/11 01:29:11;;;;;;;9.80;2.88;;;29.80;99.90;;;;;;4977486;28;20042;-76
2022/01/11 01:31:39;;;;;;;8.95;3.20;;;29.80;99.90;;;;;;4974652;28;20153;-78
2022/01/11 01:34:07;;;;;;;4.60;2.28;;;29.80;99.90;;;;;;4967600;28;20484;-78
2022/01/11 01:36:34;;;;;;;9.70;3.10;;;30.00;99.90;;;;;;4966524;28;20050;-76
2022/01/11 01:39:03;;;;;;;5.20;2.67;;;30.20;99.90;;;;;;4965303;28;20035;-76
2022/01/11 01:41:30;;;;;;;6.68;1.90;;;30.30;99.90;;;;;;4965071;28;20037;-77
2022/01/11 01:44:02;;;;;;;8.98;2.33;;;30.40;99.90;;;;;;4962739;28;20045;-75
2022/01/11 01:46:30;;;;;;;5.00;2.70;;;30.60;99.90;;;;;;4962150;28;20039;-75
2022/01/11 01:49:00;;;;;;;8.77;2.65;;;30.90;99.90;;;;;;4965581;28;20118;-75
2022/01/11 01:51:29;;;;;;;5.40;2.25;;;31.20;99.40;;;;;;4968224;28;20101;-75
2022/01/11 01:53:57;;;;;;;6.53;2.20;;;31.70;99.40;;;;;;4967313;28;20145;-75
2022/01/11 01:56:26;;;;;;;6.45;1.90;;;31.70;98.80;;;;;;4967628;28;20196;-76
2022/01/11 01:58:53;;;;;;;8.00;2.25;;;31.70;98.50;;;;;;4963556;28;20406;-75
2022/01/11 02:01:21;;;;;;;6.45;3.40;;;31.60;98.60;;;;;;4967645;28;20026;-76
2022/01/11 02:03:49;;;;;;;4.25;2.80;;;31.40;98.50;;;;;;4976588;28;20034;-75
2022/01/11 02:06:18;;;;;;;6.25;2.15;;;31.20;98.50;;;;;;4966679;28;20137;-75
2022/01/11 02:08:47;;;;;;;6.05;2.33;;;31.10;99.50;;;;;;4976927;28;20083;-76
2022/01/11 02:11:19;;;;;;;5.97;1.98;;;31.10;99.80;;;;;;4966917;28;20034;-75
2022/01/11 02:13:48;;;;;;;6.57;2.42;;;31.30;99.60;;;;;;4970939;28;20418;-75
2022/01/11 02:16:19;;;;;;;6.25;1.70;;;31.60;99.60;;;;;;4957651;28;20027;-75
2022/01/11 02:18:46;;;;;;;4.63;2.17;;;31.80;99.20;;;;;;4965710;28;20068;-75
2022/01/11 02:21:14;;;;;;;3.22;1.70;;;32.00;98.70;;;;;;4964889;28;20035;-75
2022/01/11 02:23:41;;;;;;;5.57;1.70;;;32.10;98.60;;;;;;4969511;28;20069;-75
2022/01/11 02:26:09;;;;;;;8.20;1.90;;;32.00;98.60;;;;;;4964826;28;20129;-75
2022/01/11 02:28:37;;;;;;;7.53;1.73;;;31.70;98.90;;;;;;4972057;28;20113;-75
2022/01/11 02:31:12;;;;;;;7.97;1.65;;;31.40;99.10;;;;;;4968982;28;20100;-75
2022/01/11 02:33:48;;;;;;;8.07;1.90;;;31.10;99.10;;;;;;4970053;28;20473;-75
2022/01/11 02:36:21;;;;;;;8.88;2.45;;;31.00;99.10;;;;;;4974796;28;20120;-76
2022/01/11 02:38:52;;;;;;;5.93;1.75;;;30.80;99.20;;;;;;4958094;28;20156;-75
2022/01/11 02:41:21;;;;;;;6.82;2.42;;;30.80;99.40;;;;;;4974970;28;20050;-76
2022/01/11 02:43:50;;;;;;;9.25;2.90;;;30.70;99.70;;;;;;4972129;28;20026;-75
2022/01/11 02:46:20;;;;;;;5.72;1.92;;;30.70;99.80;;;;;;4965798;28;20046;-75
2022/01/11 02:48:55;;;;;;;9.27;2.30;;;30.70;99.30;;;;;;4970175;28;20035;-76
2022/01/11 02:51:27;;;;;;;7.00;1.52;;;30.80;99.10;;;;;;4971411;28;20482;-75
2022/01/11 02:53:57;;;;;;;6.93;1.67;;;30.80;99.50;;;;;;4967977;28;20027;-75
2022/01/11 02:56:25;;;;;;;7.95;2.45;;;30.80;99.60;;;;;;4966499;28;20490;-75
2022/01/11 02:58:52;;;;;;;6.10;1.70;;;30.90;99.70;;;;;;4965542;28;20401;-76
2022/01/11 03:01:20;;;;;;;7.60;1.70;;;30.90;99.40;;;;;;4967986;28;20061;-74
2022/01/11 03:03:48;;;;;;;8.57;2.72;;;30.80;99.70;;;;;;4973805;28;20062;-76
2022/01/11 03:06:15;;;;;;;7.00;1.70;;;30.80;99.90;;;;;;4963383;28;20034;-76
2022/01/11 03:08:47;;;;;;;7.65;1.73;;;30.80;99.90;;;;;;4973400;28;20424;-77
2022/01/11 03:11:18;;;;;;;6.22;2.00;;;30.60;99.80;;;;;;4972172;28;20141;-77
2022/01/11 03:13:46;;;;;;;8.75;1.85;;;30.50;99.90;;;;;;4976772;28;20130;-76
2022/01/11 03:16:18;;;;;;;8.52;2.38;;;30.40;99.90;;;;;;4970873;28;20030;-75
2022/01/11 03:18:46;;;;;;;6.70;1.50;;;30.30;99.90;;;;;;4976503;28;20048;-76
2022/01/11 03:21:15;;;;;;;5.68;1.90;;;30.20;99.90;;;;;;4971612;28;20073;-75
2022/01/11 03:23:43;;;;;;;12.23;2.08;;;30.20;99.90;;;;;;4978436;28;20078;-76
2022/01/11 03:26:10;;;;;;;5.60;1.30;;;30.20;99.90;;;;;;4971699;28;20027;-77
2022/01/11 03:28:38;;;;;;;8.93;1.48;;;30.10;99.90;;;;;;4965710;28;20047;-76
2022/01/11 03:31:05;;;;;;;4.78;1.65;;;30.10;99.90;;;;;;4967957;28;20097;-76
2022/01/11 03:33:33;;;;;;;5.60;1.70;;;30.10;99.90;;;;;;4968569;28;20026;-76
2022/01/11 03:36:00;;;;;;;8.43;2.28;;;30.30;99.90;;;;;;4965411;28;20026;-76
2022/01/11 03:38:30;;;;;;;7.60;1.95;;;30.40;99.90;;;;;;4967672;28;20085;-77
2022/01/11 03:40:57;;;;;;;5.95;1.05;;;30.60;99.90;;;;;;4969988;28;20023;-77
2022/01/11 03:43:26;;;;;;;8.50;2.50;;;30.70;99.90;;;;;;4968809;28;20134;-77
2022/01/11 03:45:53;;;;;;;7.28;2.72;;;30.70;99.90;;;;;;4968922;28;20023;-77
2022/01/11 03:48:21;;;;;;;7.07;1.60;;;30.70;99.90;;;;;;4979019;28;20038;-77
2022/01/11 03:50:53;;;;;;;4.45;1.45;;;30.60;99.90;;;;;;4970564;28;20049;-77
2022/01/11 03:53:27;;;;;;;8.88;2.30;;;30.50;99.90;;;;;;4970043;28;20110;-76
2022/01/11 03:58:25;;;;;;;5.70;1.85;;;30.30;99.90;;;;;;4973134;28;20481;-76
2022/01/11 04:00:54;;;;;;;7.50;1.40;;;30.30;99.90;;;;;;4968926;28;20106;-77
2022/01/11 04:03:22;;;;;;;5.82;2.13;;;30.30;99.90;;;;;;4972114;28;20603;-76
2022/01/11 04:05:49;;;;;;;6.03;1.58;;;30.40;99.90;;;;;;4972423;28;20914;-76
2022/01/11 04:08:17;;;;;;;5.13;2.22;;;30.50;99.90;;;;;;4974983;28;20447;-77
2022/01/11 04:10:45;;;;;;;7.10;1.42;;;30.60;99.90;;;;;;4976151;28;20037;-77
2022/01/11 04:13:12;;;;;;;9.38;2.53;;;30.60;99.90;;;;;;4981316;28;20121;-77
2022/01/11 04:15:39;;;;;;;5.30;2.65;;;30.60;99.90;;;;;;4969035;28;20400;-77
2022/01/11 04:18:07;;;;;;;4.32;1.05;;;30.60;99.90;;;;;;4976597;28;20034;-77
2022/01/11 04:20:34;;;;;;;5.22;1.30;;;30.60;99.90;;;;;;4978595;28;20037;-77
2022/01/11 04:23:02;;;;;;;5.07;1.40;;;30.60;99.90;;;;;;4977804;28;20038;-77
2022/01/11 04:25:29;;;;;;;11.07;2.28;;;30.70;99.90;;;;;;4971908;28;20054;-77
2022/01/11 04:27:56;;;;;;;7.13;1.73;;;30.70;99.90;;;;;;4971813;28;20428;-77
2022/01/11 04:30:24;;;;;;;6.43;1.10;;;30.70;99.90;;;;;;4970601;28;20455;-77
2022/01/11 04:32:51;;;;;;;7.82;1.52;;;30.80;99.90;;;;;;4970162;28;20101;-76
2022/01/11 04:35:19;;;;;;;6.05;1.42;;;30.80;99.70;;;;;;4974147;28;20104;-77
2022/01/11 04:37:47;;;;;;;9.30;2.63;;;30.70;99.90;;;;;;4969697;28;20035;-77
2022/01/11 04:40:16;;;;;;;7.57;2.00;;;30.60;99.90;;;;;;4975117;28;20050;-76
2022/01/11 04:42:43;;;;;;;8.52;2.33;;;30.50;99.90;;;;;;4969891;28;20023;-77
2022/01/11 04:45:14;;;;;;;9.07;2.40;;;30.40;99.90;;;;;;4972656;28;20102;-77
2022/01/11 04:47:41;;;;;;;6.38;1.90;;;30.20;99.90;;;;;;4971493;28;20101;-75
2022/01/11 04:50:10;;;;;;;5.82;2.28;;;30.10;99.90;;;;;;4976503;28;20135;-76
2022/01/11 04:52:38;;;;;;;3.53;1.40;;;30.00;99.90;;;;;;4969671;28;20030;-77
2022/01/11 04:55:07;;;;;;;6.78;1.42;;;30.00;99.90;;;;;;4974676;28;20031;-77
2022/01/11 04:57:34;;;;;;;8.82;1.80;;;30.00;99.90;;;;;;4970688;28;20031;-75
2022/01/11 05:00:02;;;;;;;5.70;1.30;;;29.80;99.90;;;;;;4969691;28;20031;-76
2022/01/11 05:02:29;;;;;;;5.05;2.00;;;29.70;99.90;;;;;;4968772;28;20449;-76
2022/01/11 05:04:56;;;;;;;5.85;2.03;;;29.50;99.90;;;;;;4965757;28;20365;-76
2022/01/11 05:07:24;;;;;;;5.05;2.25;;;29.40;99.90;;;;;;4968677;28;20037;-77
2022/01/11 05:09:53;;;;;;;5.47;2.20;;;29.30;99.90;;;;;;4972212;28;20370;-79
2022/01/11 05:12:21;;;;;;;7.85;1.55;;;29.40;99.90;;;;;;4971161;28;20026;-76
2022/01/11 05:14:49;;;;;;;5.40;1.23;;;29.30;99.90;;;;;;4982670;28;20034;-78
2022/01/11 05:17:16;;;;;;;6.40;1.40;;;29.30;99.90;;;;;;4970683;28;20031;-77
2022/01/11 05:19:43;;;;;;;9.15;1.85;;;29.30;99.90;;;;;;4971683;28;20382;-76
2022/01/11 05:22:11;;;;;;;8.55;1.73;;;29.20;99.90;;;;;;4970203;28;20158;-77
2022/01/11 05:24:38;;;;;;;6.63;1.23;;;29.10;99.90;;;;;;4969715;28;20830;-77
2022/01/11 05:27:06;;;;;;;10.73;2.63;;;29.10;99.90;;;;;;4965355;28;20030;-76
2022/01/11 05:29:34;;;;;;;7.35;1.45;;;29.10;99.90;;;;;;4972280;28;21045;-77
2022/01/11 05:32:03;;;;;;;8.95;3.10;;;29.10;99.90;;;;;;4970491;28;20117;-78
2022/01/11 05:34:30;;;;;;;12.30;1.88;;;29.10;99.90;;;;;;4971878;28;20042;-77
2022/01/11 05:36:57;;;;;;;4.43;1.35;;;29.10;99.90;;;;;;4971181;28;20026;-77
2022/01/11 05:39:26;;;;;;;5.05;1.48;;;29.20;99.90;;;;;;4974255;28;20346;-76
2022/01/11 05:41:54;;;;;;;5.25;0.98;;;29.20;99.90;;;;;;4974432;28;20518;-76
2022/01/11 05:44:22;;;;;;;4.38;1.58;;;29.30;99.90;;;;;;4968950;28;20030;-78
2022/01/11 05:46:49;;;;;;;12.63;1.80;;;29.30;99.90;;;;;;4970598;28;20573;-78
2022/01/11 05:49:17;;;;;;;5.40;1.23;;;29.30;99.90;;;;;;4972298;28;20038;-76
2022/01/11 05:51:44;;;;;;;7.78;1.20;;;29.30;99.90;;;;;;4971405;28;20109;-76
2022/01/11 05:54:12;;;;;;;5.22;1.02;;;29.20;99.90;;;;;;4977764;28;20034;-78
2022/01/11 05:56:39;;;;;;;5.93;1.30;;;29.20;99.90;;;;;;4963515;28;20054;-77
2022/01/11 05:59:12;;;;;;;4.97;1.50;;;29.10;99.90;;;;;;4968548;28;20552;-77
2022/01/11 06:01:39;;;;;;;15.75;2.53;;;29.10;99.90;;;;;;4970698;28;20136;-78
2022/01/11 06:04:07;;;;;;;9.35;1.98;;;29.00;99.90;;;;;;4973828;28;20026;-78
2022/01/11 06:06:34;;;;;;;4.22;1.55;;;28.80;99.90;;;;;;4974161;28;20034;-78
2022/01/11 06:09:03;;;;;;;5.78;1.20;;;28.90;99.90;;;;;;4965344;28;20172;-76
2022/01/11 06:11:31;;;;;;;3.83;1.05;;;28.80;99.90;;;;;;4973586;28;20386;-77
2022/01/11 06:13:58;;;;;;;8.23;2.38;;;28.70;99.90;;;;;;4966999;28;20784;-75
2022/01/11 06:16:27;;;;;;;10.52;2.00;;;28.70;99.90;;;;;;4963313;28;20646;-76
2022/01/11 06:18:54;;;;;;;9.32;1.33;;;28.70;99.90;;;;;;4960940;28;20031;-79
2022/01/11 06:21:22;;;;;;;7.95;1.25;;;28.60;99.90;;;;;;4965442;28;20135;-77
2022/01/11 06:23:49;;;;;;;7.03;1.33;;;28.50;99.90;;;;;;4972075;28;20054;-76
2022/01/11 06:26:17;;;;;;;9.13;1.95;;;28.40;99.90;;;;;;4972414;28;20019;-76
2022/01/11 06:28:44;;;;;;;5.15;1.92;;;28.40;99.90;;;;;;4967168;28;20081;-77
2022/01/11 06:31:12;;;;;;;5.78;1.70;;;28.30;99.90;;;;;;4964804;28;20491;-75
2022/01/11 06:33:39;;;;;;;5.25;1.45;;;28.30;99.90;;;;;;4964218;28;20105;-76
2022/01/11 06:36:10;;;;;;;7.03;2.13;;;28.30;99.90;;;;;;4969242;28;20058;-76
2022/01/11 06:38:42;;;;;;;6.93;1.60;;;28.30;99.90;;;;;;4974824;28;20025;-75
2022/01/11 06:41:10;;;;;;;7.63;1.50;;;28.30;99.90;;;;;;4969759;28;20390;-75
2022/01/11 06:43:38;;;;;;;4.57;1.23;;;28.20;99.90;;;;;;4984221;28;20026;-75
2022/01/11 06:46:06;;;;;;;4.38;1.23;;;28.20;99.90;;;;;;4972833;28;20038;-76
2022/01/11 06:48:34;;;;;;;8.38;1.80;;;28.20;99.90;;;;;;4966123;28;20101;-76
2022/01/11 06:51:02;;;;;;;7.68;1.58;;;28.10;99.90;;;;;;4969059;28;20035;-76
2022/01/11 06:53:31;;;;;;;11.55;1.88;;;28.20;99.90;;;;;;4976161;28;20053;-76
2022/01/11 06:55:58;;;;;;;5.68;1.92;;;28.20;99.90;;;;;;4972002;28;20470;-76
2022/01/11 06:58:26;;;;;;;14.15;2.72;;;28.40;99.90;;;;;;4981944;28;20034;-75
2022/01/11 07:00:53;;;;;;;7.60;2.53;;;28.50;99.90;;;;;;4975902;28;20027;-73
2022/01/11 07:03:20;;;;;;;5.63;1.52;;;28.60;99.90;;;;;;4976721;28;20385;-76
2022/01/11 07:05:48;;;;;;;6.05;0.77;;;28.50;99.90;;;;;;4980014;28;20031;-78
2022/01/11 07:08:15;;;;;;;4.70;1.42;;;28.30;99.90;;;;;;4968698;28;20339;-77
2022/01/11 07:10:42;;;;;;;9.50;1.25;;;28.20;99.90;;;;;;4966398;28;20035;-76
2022/01/11 07:13:10;;;;;;;8.20;1.73;;;28.20;99.90;;;;;;4974613;28;20378;-76
2022/01/11 07:15:37;;;;;;;5.97;1.65;;;28.10;99.90;;;;;;4982988;28;20129;-76
2022/01/11 07:18:09;;;;;;;7.00;1.58;;;28.00;99.90;;;;;;4965517;28;20125;-76
2022/01/11 07:20:38;;;;;;;9.32;1.85;;;28.00;99.90;;;;;;4982592;28;20027;-76
2022/01/11 07:23:08;;;;;;;6.72;2.17;;;28.00;99.90;;;;;;4974188;28;20054;-76
2022/01/11 07:25:36;;;;;;;3.55;1.75;;;27.90;99.90;;;;;;4970258;28;20505;-78
2022/01/11 07:28:05;;;;;;;8.65;2.08;;;27.90;99.90;;;;;;4965978;28;20045;-76
2022/01/11 07:30:32;;;;;;;4.15;1.35;;;27.90;99.90;;;;;;4977397;28;20110;-76
2022/01/11 07:33:00;;;;;;;7.88;1.38;;;27.90;99.90;;;;;;4971345;28;20065;-76
2022/01/11 07:35:27;;;;;;;4.43;1.95;;;27.80;99.90;;;;;;4970525;28;20027;-76
2022/01/11 07:37:55;;;;;;;8.18;2.33;;;27.80;99.90;;;;;;4986813;28;20026;-77
2022/01/11 07:40:22;;;;;;;11.00;2.42;;;27.80;99.90;;;;;;4984099;28;20034;-77
2022/01/11 07:42:50;;;;;;;7.63;1.70;;;27.80;99.90;;;;;;4982100;28;20030;-78
2022/01/11 07:45:17;;;;;;;10.43;2.42;;;27.80;99.90;;;;;;4975434;28;20031;-77
2022/01/11 07:47:45;;;;;;;8.75;2.17;;;27.80;99.90;;;;;;4978913;28;20129;-77
2022/01/11 07:50:13;;;;;;;6.93;2.30;;;27.70;99.90;;;;;;4968133;28;20043;-76
2022/01/11 07:52:41;;;;;;;7.90;1.55;;;27.70;99.90;;;;;;4965371;28;20110;-76
2022/01/11 07:55:08;;;;;;;11.80;2.88;;;27.60;99.90;;;;;;4994042;28;20042;-77
2022/01/11 07:57:36;;;;;;;5.10;1.27;;;27.50;99.90;;;;;;4971511;28;20027;-76
2022/01/11 08:00:07;;;;;;;5.90;1.70;;;27.50;99.90;;;;;;4974105;28;20023;-78
2022/01/11 08:02:34;;;;;;;5.35;1.23;;;27.50;99.90;;;;;;4975563;28;20113;-78
2022/01/11 08:05:03;;;;;;;6.85;1.67;;;27.40;99.90;;;;;;4989242;28;20023;-77
2022/01/11 08:07:30;;;;;;;8.07;1.48;;;27.30;99.90;;;;;;4980133;28;20112;-77
2022/01/11 08:09:58;;;;;;;6.97;1.70;;;27.30;99.90;;;;;;4993768;28;20050;-77
2022/01/11 08:12:25;;;;;;;4.55;1.73;;;27.30;99.90;;;;;;4973840;28;20022;-77
2022/01/11 08:14:53;;;;;;;10.60;2.03;;;27.30;99.90;;;;;;4974521;28;20076;-77
2022/01/11 08:17:20;;;;;;;7.80;2.33;;;27.40;99.90;;;;;;4974104;28;20486;-80
2022/01/11 08:19:47;;;;;;;11.90;2.65;;;27.40;99.90;;;;;;4978649;28;20030;-76
2022/01/11 08:22:15;;;;;;;10.50;1.58;;;27.50;99.90;;;;;;4974518;28;20019;-77
2022/01/11 08:24:44;;;;;;;8.82;2.45;;;27.40;99.90;;;;;;4974183;28;20130;-78
2022/01/11 08:27:16;;;;;;;6.90;2.03;;;27.40;99.90;;;;;;4974161;28;20042;-78
2022/01/11 08:29:44;;;;;;;8.25;1.90;;;27.30;99.90;;;;;;4973456;28;20062;-76
2022/01/11 08:32:12;;;;;;;5.88;1.88;;;27.20;99.90;;;;;;4982324;28;20030;-77
2022/01/11 08:34:39;;;;;;;5.18;2.30;;;27.10;99.90;;;;;;4979413;28;20129;-75
2022/01/11 08:37:06;;;;;;;9.52;1.83;;;26.90;99.90;;;;;;4971552;28;20026;-76
2022/01/11 08:39:34;;;;;;;5.38;1.13;;;26.80;99.90;;;;;;4972678;28;20151;-77
2022/01/11 08:42:01;;;;;;;8.82;2.03;;;26.70;99.90;;;;;;4981187;28;20025;-78
2022/01/11 08:44:29;;;;;;;8.98;3.13;;;26.60;99.90;;;;;;4982271;28;20474;-78
2022/01/11 08:46:57;;;;;;;5.43;1.40;;;26.60;99.90;;;;;;4966784;28;20250;-78
2022/01/11 08:49:24;;;;;;;5.95;1.80;;;26.60;99.90;;;;;;4965685;28;20085;-78
2022/01/11 08:51:51;;;;;;;5.13;1.40;;;26.70;99.90;;;;;;4970560;28;20027;-78
2022/01/11 08:54:23;;;;;;;6.93;1.70;;;26.80;99.90;;;;;;4971043;28;20485;-77
2022/01/11 08:56:52;;;;;;;7.25;2.03;;;26.80;99.90;;;;;;4974708;28;20065;-77
2022/01/11 08:59:19;;;;;;;11.43;2.22;;;26.80;99.90;;;;;;4971817;28;20033;-77
2022/01/11 09:01:46;;;;;;;7.78;1.35;;;26.70;99.90;;;;;;4973025;28;20103;-77
2022/01/11 09:04:14;;;;;;;9.40;2.33;;;26.60;99.90;;;;;;4973140;28;20046;-78
2022/01/11 09:06:41;;;;;;;9.00;2.35;;;26.50;99.90;;;;;;4974740;28;20114;-77
2022/01/11 09:09:09;;;;;;;14.05;2.80;;;26.40;99.90;;;;;;4972716;28;20477;-77
2022/01/11 09:11:36;;;;;;;7.38;1.70;;;26.40;99.90;;;;;;4974578;28;20477;-77
2022/01/11 09:14:04;;;;;;;7.47;1.38;;;26.40;99.90;;;;;;4970108;28;20034;-77
2022/01/11 09:16:31;;;;;;;7.63;2.08;;;26.30;99.90;;;;;;4973003;28;20023;-77
2022/01/11 09:18:58;;;;;;;12.70;1.80;;;26.30;99.90;;;;;;4972021;28;20058;-77
2022/01/11 09:21:27;;;;;;;7.70;1.70;;;26.30;99.90;;;;;;4980896;28;20026;-77
2022/01/11 09:23:54;;;;;;;10.63;1.30;;;26.30;99.90;;;;;;4980556;28;20054;-78
2022/01/11 09:26:22;;;;;;;6.32;1.60;;;26.30;99.90;;;;;;4973321;28;20217;-77
2022/01/11 09:28:49;;;;;;;9.10;1.70;;;26.20;99.90;;;;;;4972346;28;20053;-78
2022/01/11 09:31:17;;;;;;;8.38;1.90;;;26.20;99.90;;;;;;4973394;28;20498;-78
2022/01/11 09:33:44;;;;;;;9.20;1.88;;;26.20;99.90;;;;;;4972931;28;20401;-77
2022/01/11 09:36:12;;;;;;;4.93;1.20;;;26.20;99.90;;;;;;4974410;28;20015;-78
2022/01/11 09:38:39;;;;;;;7.93;2.22;;;26.20;99.90;;;;;;4976198;28;20057;-78
2022/01/11 09:41:07;;;;;;;5.70;1.67;;;26.10;99.90;;;;;;4970445;28;20530;-78
2022/01/11 09:43:34;;;;;;;13.95;1.92;;;26.00;99.90;;;;;;4966577;28;20092;-77
2022/01/11 09:46:02;;;;;;;10.48;2.65;;;25.90;99.90;;;;;;4972258;28;20480;-77
2022/01/11 09:48:35;;;;;;;7.78;1.42;;;25.80;99.90;;;;;;4969724;28;20038;-78
2022/01/11 09:51:02;;;;;;;9.43;1.80;;;25.90;99.90;;;;;;4974186;28;20065;-78
2022/01/11 09:53:30;;;;;;;7.07;2.30;;;25.80;99.90;;;;;;4969370;28;20493;-76
2022/01/11 09:56:01;;;;;;;9.68;1.85;;;25.80;99.90;;;;;;4978476;28;20039;-77
2022/01/11 09:58:28;;;;;;;10.48;1.63;;;25.70;99.90;;;;;;4969973;28;20435;-77
2022/01/11 10:00:55;;;;;;;12.80;2.50;;;25.70;99.90;;;;;;4969933;28;20062;-77
2022/01/11 10:03:23;;;;;;;8.32;2.10;;;25.60;99.90;;;;;;4970991;28;20378;-78
2022/01/11 10:05:50;;;;;;;9.25;1.30;;;25.50;99.90;;;;;;4970594;28;20031;-77
2022/01/11 10:08:31;;;;;;;8.15;2.08;;;25.50;99.90;;;;;;4969107;28;20121;-77
2022/01/11 10:10:59;;;;;;;9.05;1.67;;;25.50;99.90;;;;;;4970604;28;20106;-77
2022/01/11 10:13:41;;;;;;;6.28;1.45;;;25.40;99.90;;;;;;4970392;28;20433;-77
2022/01/11 10:16:28;;;;;;;12.90;2.47;;;25.30;99.90;;;;;;4967296;28;20113;-77
2022/01/11 10:18:56;;;;;;;9.60;1.40;;;25.20;99.90;;;;;;4971997;28;20035;-77
2022/01/11 10:21:41;;;;;;;7.82;1.20;;;25.20;99.90;;;;;;4969261;28;20117;-77
2022/01/11 10:24:39;;;;;;;9.32;2.30;;;25.20;99.90;;;;;;4986054;28;20050;-76
2022/01/11 10:27:33;;;;;;;7.47;1.70;;;25.20;99.90;;;;;;4979354;28;20030;-76
2022/01/11 10:30:18;;;;;;;14.38;1.98;;;25.10;99.90;;;;;;4970346;28;20402;-77
2022/01/11 10:32:51;;;;;;;16.27;2.47;;;25.10;99.90;;;;;;4970194;28;20169;-78
2022/01/11 10:35:24;;;;;;;10.85;2.45;;;25.10;99.90;;;;;;4976684;28;20136;-77
2022/01/11 10:37:55;;;;;;;7.40;1.95;;;25.10;99.90;;;;;;4979070;28;20030;-77
2022/01/11 10:40:24;;;;;;;7.38;1.95;;;25.10;99.90;;;;;;4971651;28;20033;-77
2022/01/11 10:42:56;;;;;;;12.15;1.67;;;25.20;99.90;;;;;;4971861;28;20031;-78
2022/01/11 10:45:30;;;;;;;9.48;1.20;;;25.20;99.90;;;;;;4970692;28;20025;-78
2022/01/11 10:47:59;;;;;;;7.25;1.95;;;25.10;99.90;;;;;;4968897;28;20109;-78
2022/01/11 10:50:34;;;;;;;9.52;1.75;;;25.20;99.90;;;;;;4975781;28;20378;-78
2022/01/11 10:53:17;;;;;;;11.48;2.13;;;25.20;99.90;;;;;;4975854;28;20034;-77
2022/01/11 10:55:50;;;;;;;6.00;2.08;;;25.10;99.90;;;;;;4973298;28;20029;-78
2022/01/11 10:58:17;;;;;;;7.97;1.67;;;25.00;99.90;;;;;;4970274;28;20026;-77
2022/01/11 11:00:48;;;;;;;7.03;1.50;;;24.90;99.90;;;;;;4963406;28;20053;-78
2022/01/11 11:03:21;;;;;;;7.43;1.63;;;24.80;99.90;;;;;;4965034;28;20022;-77
2022/01/11 11:05:55;;;;;;;14.35;3.45;;;24.70;99.90;;;;;;4973568;28;20035;-78
2022/01/11 11:08:23;;;;;;;7.22;1.88;;;24.60;99.90;;;;;;4971614;28;20056;-78
2022/01/11 11:11:00;;;;;;;7.32;2.17;;;24.50;99.90;;;;;;4968603;28;20034;-77
2022/01/11 11:13:32;;;;;;;11.10;3.05;;;24.50;99.90;;;;;;4967557;28;20033;-78
2022/01/11 11:16:13;;;;;;;7.78;1.52;;;24.50;99.90;;;;;;4977401;28;20027;-78
2022/01/11 11:18:42;;;;;;;13.07;2.30;;;24.60;99.90;;;;;;4968747;28;20106;-78
2022/01/11 11:21:17;;;;;;;10.15;1.55;;;24.70;99.90;;;;;;4969879;28;20088;-78
2022/01/11 11:23:46;;;;;;;9.93;1.90;;;24.80;99.90;;;;;;4966336;28;20077;-78
2022/01/11 11:26:14;;;;;;;5.78;1.50;;;24.70;99.90;;;;;;4969959;28;20035;-78
2022/01/11 11:28:42;;;;;;;13.75;1.52;;;24.70;99.90;;;;;;4973152;28;20037;-77
2022/01/11 11:31:09;;;;;;;4.55;1.15;;;24.60;99.90;;;;;;4966956;28;20109;-77
2022/01/11 11:33:42;;;;;;;6.70;2.05;;;24.40;99.90;;;;;;4977113;28;20057;-77
2022/01/11 11:36:13;;;;;;;7.22;1.85;;;24.30;99.90;;;;;;4975245;28;20027;-78
2022/01/11 11:38:46;;;;;;;11.60;1.45;;;24.20;99.90;;;;;;4972859;28;20362;-76
2022/01/11 11:41:14;;;;;;;5.25;1.00;;;24.20;99.90;;;;;;4966796;28;20472;-77
2022/01/11 11:43:42;;;;;;;11.32;2.33;;;24.10;99.90;;;;;;4971918;28;20046;-77
2022/01/11 11:46:10;;;;;;;7.32;1.27;;;24.00;99.90;;;;;;4968591;28;20030;-77
2022/01/11 11:48:37;;;;;;;5.82;1.90;;;24.00;99.90;;;;;;4970981;28;20053;-77
2022/01/11 11:51:12;;;;;;;7.70;1.30;;;24.00;99.90;;;;;;4971614;28;20066;-76
2022/01/11 11:53:41;;;;;;;10.18;1.70;;;23.90;99.90;;;;;;4978388;28;20541;-75
2022/01/11 11:56:15;;;;;;;13.73;2.47;;;23.90;99.90;;;;;;4971536;28;20030;-76
2022/01/11 11:58:48;;;;;;;11.57;3.15;;;23.80;99.90;;;;;;4972529;28;20369;-77
2022/01/11 12:01:41;;;;;;;11.73;2.90;;;23.80;99.90;;;;;;4970687;28;20039;-76
2022/01/11 12:04:13;;;;;;;9.07;1.42;;;23.80;99.90;;;;;;4970384;28;20031;-78
2022/01/11 12:06:41;;;;;;;9.75;2.17;;;23.80;99.90;;;;;;4968539;28;20035;-76
2022/01/11 12:09:11;;;;;;;7.78;1.67;;;23.70;99.90;;;;;;4973845;28;20038;-77
2022/01/11 12:11:45;;;;;;;8.02;1.38;;;23.70;99.90;;;;;;4968303;28;20031;-77
2022/01/11 12:14:32;;;;;;;8.10;1.42;;;23.70;99.90;;;;;;4970823;28;20047;-76
2022/01/11 12:17:23;;;;;;;16.73;2.35;;;23.70;99.90;;;;;;4968621;28;20058;-76
2022/01/11 12:19:55;;;;;;;8.38;1.73;;;23.70;99.90;;;;;;4966500;28;20054;-75
2022/01/11 12:22:32;;;;;;;8.05;1.95;;;23.60;99.90;;;;;;4969968;28;20026;-76
2022/01/11 12:25:03;;;;;;;4.60;1.40;;;23.60;99.90;;;;;;4975856;28;20039;-78
2022/01/11 12:27:50;;;;;;;10.75;1.50;;;23.60;99.90;;;;;;4971947;28;20058;-77
2022/01/11 12:30:18;;;;;;;15.65;2.85;;;23.50;99.90;;;;;;4968523;28;20045;-76
2022/01/11 12:33:09;;;;;;;12.23;2.50;;;23.50;99.90;;;;;;4971373;28;20486;-77
2022/01/11 12:35:51;;;;;;;9.38;1.58;;;23.50;99.90;;;;;;4971301;28;20078;-78
2022/01/11 12:38:18;;;;;;;8.07;2.40;;;23.40;99.90;;;;;;4969519;28;20116;-78
2022/01/11 12:40:47;;;;;;;9.80;2.00;;;23.40;99.90;;;;;;4969649;28;20039;-77
2022/01/11 12:43:38;;;;;;;8.38;1.75;;;23.40;99.90;;;;;;4972733;28;20065;-77
2022/01/11 12:46:13;;;;;;;10.20;2.13;;;23.40;99.90;;;;;;4967042;28;20482;-74
2022/01/11 12:48:58;;;;;;;6.63;1.70;;;23.30;99.90;;;;;;4974380;28;20051;-76
2022/01/11 12:51:57;;;;;;;8.03;2.00;;;23.40;99.90;;;;;;4970800;28;20106;-76
2022/01/11 12:54:48;;;;;;;9.20;1.88;;;23.40;99.90;;;;;;4974755;28;20049;-75
2022/01/11 12:57:24;;;;;;;14.73;1.40;;;23.40;99.90;;;;;;4969766;28;20027;-76
2022/01/11 12:59:54;;;;;;;;;;;23.30;99.90;;;;;;4967879;28;20093;-75
2022/01/11 13:02:28;;;;;;;6.60;2.42;;;23.30;99.90;;;;;;4970455;28;20377;-76
2022/01/11 13:05:10;;;;;;;7.85;1.85;;;23.30;99.90;;;;;;4966982;28;20069;-77